createdAt,value
2019-04-20T00:00:56.426Z,9.53
2019-04-20T00:03:34.384Z,9.43
2019-04-20T00:05:55.264Z,9.46
2019-04-20T00:08:27.887Z,9.41
2019-04-20T00:11:02.683Z,9.32
2019-04-20T00:13:38.402Z,9.52
2019-04-20T00:15:55.774Z,9.26
2019-04-20T00:18:28.058Z,9.03
2019-04-20T00:21:00.287Z,9.12
2019-04-20T00:23:40.440Z,9.06
2019-04-20T00:26:27.334Z,9.11
2019-04-20T00:29:06.880Z,8.70
2019-04-20T00:31:35.114Z,8.99
2019-04-20T00:33:59.416Z,8.72
2019-04-20T00:36:20.181Z,8.57
2019-04-20T00:38:53.430Z,8.58
2019-04-20T00:41:21.261Z,8.58
2019-04-20T00:43:49.678Z,8.30
2019-04-20T00:46:26.370Z,8.57
2019-04-20T00:48:55.868Z,8.47
2019-04-20T00:51:35.090Z,8.47
2019-04-20T00:53:52.309Z,8.43
2019-04-20T00:56:20.235Z,8.26
2019-04-20T00:59:03.032Z,8.37
2019-04-20T01:01:42.464Z,8.38
2019-04-20T01:04:10.434Z,8.24
2019-04-20T01:06:56.383Z,8.22
2019-04-20T01:09:16.038Z,8.39
2019-04-20T01:11:47.764Z,8.40
2019-04-20T01:14:17.354Z,8.33
2019-04-20T01:16:53.897Z,8.06
2019-04-20T01:19:15.975Z,8.08
2019-04-20T01:21:54.904Z,8.19
2019-04-20T01:24:23.940Z,8.09
2019-04-20T01:26:50.545Z,8.17
2019-04-20T01:29:25.864Z,7.96
2019-04-20T01:32:02.316Z,7.91
2019-04-20T01:34:34.534Z,7.96
2019-04-20T01:37:05.632Z,7.77
2019-04-20T01:39:27.610Z,8.01
2019-04-20T01:41:49.568Z,7.92
2019-04-20T01:44:29.335Z,7.89
2019-04-20T01:46:54.189Z,7.86
2019-04-20T01:49:23.824Z,7.94
2019-04-20T01:51:57.420Z,7.87
2019-04-20T01:54:42.153Z,7.88
2019-04-20T01:57:03.102Z,7.78
2019-04-20T01:59:34.752Z,7.72
2019-04-20T02:02:13.150Z,7.77
2019-04-20T02:04:43.545Z,7.75
2019-04-20T02:07:10.210Z,7.67
2019-04-20T02:09:47.497Z,7.59
2019-04-20T02:12:15.696Z,7.38
2019-04-20T02:14:46.279Z,7.38
2019-04-20T02:17:21.473Z,7.40
2019-04-20T02:20:00.714Z,7.45
2019-04-20T02:22:30.037Z,7.50
2019-04-20T02:24:41.047Z,7.43
2019-04-20T02:27:10.340Z,7.47
2019-04-20T02:30:02.531Z,7.38
2019-04-20T02:32:40.566Z,7.47
2019-04-20T02:35:16.448Z,7.27
2019-04-20T02:45:38.806Z,7.19
2019-04-20T02:50:30.175Z,7.25
2019-04-20T02:53:04.588Z,7.01
2019-04-20T03:00:28.783Z,7.02
2019-04-20T03:02:43.055Z,7.07
2019-04-20T03:05:15.228Z,6.92
2019-04-20T03:07:50.343Z,6.94
2019-04-20T03:10:17.297Z,6.91
2019-04-20T03:12:50.552Z,7.01
2019-04-20T03:15:21.842Z,6.79
2019-04-20T03:17:51.246Z,6.76
2019-04-20T03:20:23.074Z,6.60
2019-04-20T03:23:11.649Z,6.79
2019-04-20T03:25:24.183Z,6.79
2019-04-20T03:27:51.897Z,6.41
2019-04-20T03:33:35.079Z,6.49
2019-04-20T03:35:52.847Z,6.58
2019-04-20T03:38:14.484Z,6.75
2019-04-20T03:40:37.417Z,6.69
2019-04-20T03:42:54.815Z,6.76
2019-04-20T03:45:25.404Z,6.96
2019-04-20T03:48:08.326Z,6.83
2019-04-20T03:50:48.845Z,6.75
2019-04-20T03:53:18.091Z,6.70
2019-04-20T03:55:44.564Z,6.77
2019-04-20T03:58:24.212Z,6.77
2019-04-20T04:00:59.931Z,6.76
2019-04-20T04:03:47.013Z,6.64
2019-04-20T04:06:03.080Z,6.61
2019-04-20T04:08:27.760Z,6.67
2019-04-20T04:11:12.362Z,6.51
2019-04-20T04:13:22.931Z,6.31
2019-04-20T04:15:57.518Z,6.51
2019-04-20T04:18:29.703Z,6.40
2019-04-20T04:21:01.069Z,6.28
2019-04-20T04:23:40.349Z,6.37
2019-04-20T04:26:08.595Z,6.38
2019-04-20T04:28:37.282Z,6.50
2019-04-20T04:31:12.012Z,6.34
2019-04-20T04:36:10.534Z,6.23
2019-04-20T04:38:51.731Z,6.35
2019-04-20T04:41:19.579Z,6.42
2019-04-20T04:43:48.334Z,6.39
2019-04-20T04:45:55.681Z,6.44
2019-04-20T04:48:31.289Z,6.40
2019-04-20T04:50:59.849Z,6.42
2019-04-20T04:53:38.772Z,6.54
2019-04-20T04:56:02.735Z,6.41
2019-04-20T04:58:25.682Z,6.52
2019-04-20T05:01:01.390Z,6.54
2019-04-20T05:03:41.304Z,6.47
2019-04-20T05:06:19.693Z,6.66
2019-04-20T05:08:36.620Z,6.69
2019-04-20T05:11:00.675Z,6.76
2019-04-20T05:13:37.035Z,7.16
2019-04-20T05:16:13.411Z,7.55
2019-04-20T05:18:57.918Z,8.19
2019-04-20T05:21:20.763Z,8.77
2019-04-20T05:23:49.172Z,9.20
2019-04-20T05:26:30.000Z,9.71
2019-04-20T05:28:49.508Z,9.96
2019-04-20T05:31:11.571Z,10.50
2019-04-20T05:34:06.776Z,10.56
2019-04-20T05:36:29.602Z,10.76
2019-04-20T05:39:11.690Z,10.93
2019-04-20T05:41:29.860Z,11.22
2019-04-20T05:44:03.848Z,11.26
2019-04-20T05:46:36.235Z,11.30
2019-04-20T05:49:13.500Z,11.40
2019-04-20T05:54:08.087Z,11.50
2019-04-20T05:56:40.285Z,11.43
2019-04-20T05:59:07.631Z,11.54
2019-04-20T06:01:40.795Z,11.70
2019-04-20T06:04:03.052Z,11.34
2019-04-20T06:06:43.349Z,11.63
2019-04-20T06:09:12.031Z,11.45
2019-04-20T06:11:50.096Z,11.35
2019-04-20T06:14:05.847Z,11.11
2019-04-20T06:16:55.760Z,11.28
2019-04-20T06:19:35.910Z,11.48
2019-04-20T06:21:57.562Z,11.21
2019-04-20T06:24:36.341Z,11.32
2019-04-20T06:27:01.814Z,11.44
2019-04-20T06:29:23.627Z,11.74
2019-04-20T06:31:59.243Z,11.94
2019-04-20T06:36:57.124Z,11.81
2019-04-20T06:39:45.102Z,11.88
2019-04-20T06:44:34.298Z,12.04
2019-04-20T06:47:11.586Z,12.07
2019-04-20T06:49:36.771Z,12.09
2019-04-20T06:52:16.596Z,12.12
2019-04-20T06:54:46.140Z,12.09
2019-04-20T06:57:14.452Z,12.07
2019-04-20T06:59:43.111Z,12.09
2019-04-20T07:02:22.276Z,12.82
2019-04-20T07:04:52.087Z,13.13
2019-04-20T07:07:14.359Z,13.47
2019-04-20T07:09:55.662Z,13.25
2019-04-20T07:12:14.342Z,13.19
2019-04-20T07:14:36.653Z,13.35
2019-04-20T07:17:33.432Z,13.63
2019-04-20T07:19:50.050Z,13.84
2019-04-20T07:24:57.785Z,13.77
2019-04-20T07:27:25.912Z,13.90
2019-04-20T07:30:00.550Z,14.44
2019-04-20T07:32:19.101Z,14.30
2019-04-20T07:34:56.694Z,14.48
2019-04-20T07:40:07.386Z,15.07
2019-04-20T07:42:37.447Z,14.88
2019-04-20T07:45:08.780Z,14.88
2019-04-20T07:47:40.382Z,15.23
2019-04-20T07:50:02.414Z,15.18
2019-04-20T07:52:12.340Z,15.50
2019-04-20T07:55:18.825Z,15.72
2019-04-20T07:57:30.745Z,16.07
2019-04-20T08:00:00.386Z,16.35
2019-04-20T08:02:36.565Z,16.18
2019-04-20T08:04:59.498Z,16.33
2019-04-20T08:07:17.526Z,16.63
2019-04-20T08:09:54.428Z,16.48
2019-04-20T08:12:49.949Z,16.68
2019-04-20T08:15:27.113Z,17.01
2019-04-20T08:17:52.531Z,17.08
2019-04-20T08:20:17.536Z,17.15
2019-04-20T08:22:47.549Z,17.62
2019-04-20T08:25:12.639Z,17.56
2019-04-20T08:27:27.635Z,17.74
2019-04-20T08:30:20.527Z,18.53
2019-04-20T08:32:58.570Z,18.68
2019-04-20T08:35:39.777Z,18.89
2019-04-20T08:38:32.552Z,18.96
2019-04-20T08:40:40.008Z,19.10
2019-04-20T08:45:43.036Z,19.27
2019-04-20T08:48:12.819Z,19.45
2019-04-20T08:50:41.285Z,19.46
2019-04-20T08:55:40.050Z,19.70
2019-04-20T08:57:51.790Z,19.61
2019-04-20T09:00:29.670Z,19.80
2019-04-20T09:02:57.856Z,19.69
2019-04-20T09:05:34.885Z,19.92
2019-04-20T09:08:02.507Z,19.90
2019-04-20T09:10:43.914Z,19.90
2019-04-20T09:13:07.421Z,20.12
2019-04-20T09:15:23.706Z,20.09
2019-04-20T09:18:00.588Z,20.09
2019-04-20T09:20:38.453Z,20.21
2019-04-20T09:23:18.352Z,20.45
2019-04-20T09:28:14.576Z,20.43
2019-04-20T09:30:45.505Z,20.40
2019-04-20T09:33:41.398Z,20.58
2019-04-20T09:36:09.690Z,20.55
2019-04-20T09:38:42.990Z,20.54
2019-04-20T09:41:22.001Z,20.66
2019-04-20T09:43:34.731Z,20.77
2019-04-20T09:46:06.651Z,20.70
2019-04-20T09:48:42.005Z,21.17
2019-04-20T09:51:25.829Z,20.92
2019-04-20T09:53:47.479Z,21.03
2019-04-20T09:56:19.643Z,21.09
2019-04-20T09:58:54.931Z,21.15
2019-04-20T10:01:15.616Z,21.36
2019-04-20T10:03:36.581Z,21.41
2019-04-20T10:06:05.616Z,21.20
2019-04-20T10:08:43.529Z,21.32
2019-04-20T10:11:05.688Z,21.55
2019-04-20T10:13:34.419Z,21.64
2019-04-20T10:16:03.824Z,21.68
2019-04-20T10:18:34.217Z,21.82
2019-04-20T10:21:02.857Z,21.78
2019-04-20T10:23:32.463Z,21.93
2019-04-20T10:26:01.062Z,21.80
2019-04-20T10:28:29.815Z,21.94
2019-04-20T10:30:58.955Z,22.04
2019-04-20T10:33:29.270Z,21.97
2019-04-20T10:35:59.318Z,22.13
2019-04-20T10:38:32.866Z,21.90
2019-04-20T10:41:09.508Z,22.25
2019-04-20T10:43:30.284Z,22.17
2019-04-20T10:45:59.016Z,22.11
2019-04-20T10:48:32.028Z,22.52
2019-04-20T10:50:59.044Z,22.69
2019-04-20T10:53:27.977Z,22.32
2019-04-20T10:55:57.774Z,22.54
2019-04-20T10:58:27.453Z,22.56
2019-04-20T11:00:56.049Z,22.30
2019-04-20T11:03:24.871Z,22.20
2019-04-20T11:05:53.934Z,22.50
2019-04-20T11:08:22.533Z,22.45
2019-04-20T11:11:05.149Z,22.66
2019-04-20T11:13:21.541Z,22.98
2019-04-20T11:15:50.551Z,23.01
2019-04-20T11:18:19.641Z,22.78
2019-04-20T11:20:49.098Z,22.93
2019-04-20T11:23:18.196Z,22.85
2019-04-20T11:25:48.270Z,23.07
2019-04-20T11:28:16.859Z,23.08
2019-04-20T11:30:46.084Z,23.22
2019-04-20T11:33:16.005Z,23.23
2019-04-20T11:35:46.199Z,23.21
2019-04-20T11:38:17.125Z,23.40
2019-04-20T11:40:45.155Z,23.32
2019-04-20T11:43:13.739Z,23.20
2019-04-20T11:45:42.693Z,23.29
2019-04-20T11:48:11.676Z,23.47
2019-04-20T11:50:40.410Z,23.30
2019-04-20T11:53:09.147Z,23.42
2019-04-20T11:55:38.211Z,23.45
2019-04-20T11:58:08.093Z,23.40
2019-04-20T12:00:58.582Z,23.41
2019-04-20T12:03:28.134Z,23.41
2019-04-20T12:05:55.758Z,23.15
2019-04-20T12:08:22.973Z,23.51
2019-04-20T12:10:56.695Z,23.57
2019-04-20T12:13:22.639Z,23.73
2019-04-20T12:15:51.844Z,23.57
2019-04-20T12:18:20.637Z,23.57
2019-04-20T12:20:50.370Z,23.75
2019-04-20T12:23:20.122Z,23.94
2019-04-20T12:25:50.092Z,23.70
2019-04-20T12:28:19.846Z,23.50
2019-04-20T12:30:48.574Z,23.85
2019-04-20T12:33:17.799Z,23.60
2019-04-20T12:35:46.325Z,23.80
2019-04-20T12:38:14.971Z,23.89
2019-04-20T12:40:44.058Z,24.08
2019-04-20T12:43:13.233Z,23.93
2019-04-20T12:45:42.124Z,23.97
2019-04-20T12:48:11.424Z,23.79
2019-04-20T12:50:41.459Z,23.75
2019-04-20T12:53:10.666Z,23.93
2019-04-20T12:55:40.829Z,24.11
2019-04-20T12:58:10.522Z,23.81
2019-04-20T13:00:49.749Z,23.87
2019-04-20T13:03:19.337Z,23.88
2019-04-20T13:05:48.241Z,23.84
2019-04-20T13:08:23.242Z,23.64
2019-04-20T13:10:49.025Z,23.79
2019-04-20T13:13:28.496Z,23.88
2019-04-20T13:16:16.709Z,24.10
2019-04-20T13:18:55.634Z,24.05
2019-04-20T13:21:25.046Z,24.01
2019-04-20T13:23:53.623Z,24.13
2019-04-20T13:26:22.695Z,24.07
2019-04-20T13:28:51.188Z,24.07
2019-04-20T13:31:19.997Z,24.02
2019-04-20T13:33:57.258Z,24.21
2019-04-20T13:36:26.183Z,24.03
2019-04-20T13:38:55.093Z,23.87
2019-04-20T13:41:24.846Z,24.19
2019-04-20T13:43:56.080Z,23.90
2019-04-20T13:46:24.831Z,24.37
2019-04-20T13:48:53.579Z,24.29
2019-04-20T13:51:23.036Z,24.40
2019-04-20T13:53:53.131Z,24.16
2019-04-20T13:56:23.777Z,24.45
2019-04-20T13:58:54.023Z,24.16
2019-04-20T14:01:36.992Z,24.31
2019-04-20T14:04:20.620Z,24.43
2019-04-20T14:06:51.186Z,24.39
2019-04-20T14:09:21.250Z,24.41
2019-04-20T14:11:49.971Z,24.41
2019-04-20T14:14:19.239Z,24.39
2019-04-20T14:16:47.875Z,24.42
2019-04-20T14:19:18.962Z,24.76
2019-04-20T14:21:48.127Z,24.65
2019-04-20T14:24:17.283Z,24.75
2019-04-20T14:26:45.928Z,24.47
2019-04-20T14:29:14.837Z,24.51
2019-04-20T14:31:43.833Z,24.52
2019-04-20T14:34:13.043Z,24.66
2019-04-20T14:36:41.875Z,24.41
2019-04-20T14:39:10.402Z,24.40
2019-04-20T14:41:40.213Z,24.33
2019-04-20T14:44:10.009Z,24.52
2019-04-20T14:46:39.846Z,24.62
2019-04-20T14:49:08.453Z,24.76
2019-04-20T14:51:37.514Z,24.42
2019-04-20T14:54:07.422Z,24.47
2019-04-20T14:56:36.041Z,24.53
2019-04-20T14:59:19.892Z,24.30
2019-04-20T15:01:54.358Z,24.55
2019-04-20T15:04:25.064Z,24.59
2019-04-20T15:06:54.747Z,24.61
2019-04-20T15:09:24.606Z,24.46
2019-04-20T15:11:54.749Z,24.60
2019-04-20T15:14:24.770Z,24.60
2019-04-20T15:16:53.447Z,24.57
2019-04-20T15:19:23.673Z,24.63
2019-04-20T15:21:57.731Z,24.78
2019-04-20T15:24:27.352Z,24.56
2019-04-20T15:26:56.439Z,24.68
2019-04-20T15:29:26.336Z,24.63
2019-04-20T15:31:56.401Z,24.53
2019-04-20T15:34:26.677Z,24.64
2019-04-20T15:36:55.977Z,24.52
2019-04-20T15:39:25.251Z,24.43
2019-04-20T15:41:53.806Z,24.42
2019-04-20T15:44:22.331Z,24.74
2019-04-20T15:46:51.113Z,24.69
2019-04-20T15:49:19.894Z,24.48
2019-04-20T15:51:49.968Z,24.58
2019-04-20T15:54:19.748Z,24.66
2019-04-20T15:56:55.621Z,24.63
2019-04-20T15:59:18.483Z,24.80
2019-04-20T16:01:49.281Z,24.47
2019-04-20T16:04:39.432Z,24.46
2019-04-20T16:07:08.400Z,24.35
2019-04-20T16:09:36.247Z,24.47
2019-04-20T16:12:04.821Z,24.56
2019-04-20T16:14:33.457Z,24.33
2019-04-20T16:17:04.101Z,24.31
2019-04-20T16:19:41.808Z,24.39
2019-04-20T16:22:03.700Z,24.52
2019-04-20T16:24:44.825Z,24.41
2019-04-20T16:27:18.083Z,24.40
2019-04-20T16:29:47.376Z,24.39
2019-04-20T16:32:16.516Z,24.37
2019-04-20T16:34:46.417Z,24.34
2019-04-20T16:37:15.067Z,24.52
2019-04-20T16:39:43.643Z,24.27
2019-04-20T16:42:14.136Z,24.38
2019-04-20T16:44:43.133Z,24.33
2019-04-20T16:47:12.312Z,24.15
2019-04-20T16:49:41.181Z,24.12
2019-04-20T16:52:10.571Z,24.11
2019-04-20T16:54:39.805Z,24.08
2019-04-20T16:57:12.244Z,24.01
2019-04-20T16:59:43.938Z,23.96
2019-04-20T17:02:08.992Z,24.01
2019-04-20T17:04:37.577Z,24.44
2019-04-20T17:07:10.380Z,24.20
2019-04-20T17:09:39.855Z,24.17
2019-04-20T17:12:09.905Z,24.03
2019-04-20T17:14:39.801Z,24.04
2019-04-20T17:17:09.468Z,23.83
2019-04-20T17:19:38.049Z,23.91
2019-04-20T17:22:07.525Z,23.83
2019-04-20T17:24:37.588Z,23.67
2019-04-20T17:27:26.702Z,23.45
2019-04-20T17:30:03.218Z,23.29
2019-04-20T17:32:33.765Z,23.31
2019-04-20T17:35:18.037Z,23.20
2019-04-20T17:37:39.119Z,23.19
2019-04-20T17:40:26.447Z,23.24
2019-04-20T17:42:48.966Z,22.84
2019-04-20T17:45:11.348Z,22.84
2019-04-20T17:47:51.269Z,22.74
2019-04-20T17:50:29.403Z,22.20
2019-04-20T17:52:55.237Z,21.93
2019-04-20T17:55:24.640Z,21.91
2019-04-20T17:57:47.013Z,21.81
2019-04-20T18:00:29.073Z,21.53
2019-04-20T18:03:38.076Z,21.21
2019-04-20T18:06:04.697Z,21.06
2019-04-20T18:08:31.116Z,20.88
2019-04-20T18:10:57.011Z,20.88
2019-04-20T18:13:21.656Z,20.56
2019-04-20T18:16:04.969Z,20.16
2019-04-20T18:18:35.300Z,20.02
2019-04-20T18:20:54.848Z,19.56
2019-04-20T18:23:29.342Z,19.40
2019-04-20T18:26:13.237Z,19.44
2019-04-20T18:28:40.127Z,19.66
2019-04-20T18:31:04.456Z,19.85
2019-04-20T18:33:35.664Z,19.48
2019-04-20T18:36:05.853Z,19.13
2019-04-20T18:38:39.306Z,18.99
2019-04-20T18:41:09.311Z,18.75
2019-04-20T18:43:43.905Z,18.47
2019-04-20T18:46:24.828Z,18.21
2019-04-20T18:48:54.310Z,18.18
2019-04-20T18:51:07.883Z,17.94
2019-04-20T18:53:42.717Z,18.29
2019-04-20T18:56:08.127Z,17.87
2019-04-20T18:58:37.561Z,17.72
2019-04-20T19:01:07.514Z,17.60
2019-04-20T19:03:41.821Z,17.34
2019-04-20T19:06:07.774Z,17.30
2019-04-20T19:08:40.405Z,17.25
2019-04-20T19:11:13.171Z,17.24
2019-04-20T19:13:58.002Z,17.06
2019-04-20T19:16:35.598Z,17.05
2019-04-20T19:19:19.842Z,16.89
2019-04-20T19:21:37.414Z,16.95
2019-04-20T19:24:12.182Z,16.87
2019-04-20T19:26:38.407Z,17.00
2019-04-20T19:29:14.025Z,16.82
2019-04-20T19:31:49.949Z,16.75
2019-04-20T19:34:26.016Z,16.58
2019-04-20T19:36:47.423Z,16.59
2019-04-20T19:39:21.384Z,16.62
2019-04-20T19:41:49.167Z,16.85
2019-04-20T19:44:20.498Z,16.61
2019-04-20T19:47:01.621Z,16.73
2019-04-20T19:49:22.968Z,16.56
2019-04-20T19:52:13.636Z,16.51
2019-04-20T19:54:30.226Z,16.40
2019-04-20T19:56:54.073Z,16.25
2019-04-20T19:59:23.268Z,16.20
2019-04-20T20:01:42.059Z,16.05
2019-04-20T20:04:11.915Z,15.70
2019-04-20T20:06:47.096Z,15.73
2019-04-20T20:09:14.334Z,15.52
2019-04-20T20:11:44.388Z,15.19
2019-04-20T20:14:13.570Z,15.07
2019-04-20T20:16:58.886Z,15.03
2019-04-20T20:19:29.427Z,15.18
2019-04-20T20:21:59.016Z,15.08
2019-04-20T20:24:16.035Z,15.26
2019-04-20T20:26:51.049Z,15.04
2019-04-20T20:29:23.187Z,15.03
2019-04-20T20:32:02.298Z,14.92
2019-04-20T20:34:24.746Z,14.81
2019-04-20T20:36:53.983Z,14.67
2019-04-20T20:39:21.347Z,14.64
2019-04-20T20:41:59.361Z,14.71
2019-04-20T20:44:28.696Z,14.69
2019-04-20T20:47:00.756Z,14.66
2019-04-20T20:49:33.005Z,14.60
2019-04-20T20:52:09.847Z,14.68
2019-04-20T20:54:29.568Z,14.58
2019-04-20T20:56:55.576Z,14.74
2019-04-20T20:59:30.204Z,14.76
2019-04-20T21:01:54.126Z,14.93
2019-04-20T21:04:17.887Z,15.71
2019-04-20T21:06:46.614Z,16.47
2019-04-20T21:09:16.527Z,16.49
2019-04-20T21:11:46.358Z,16.35
2019-04-20T21:14:21.041Z,16.20
2019-04-20T21:16:52.252Z,16.19
2019-04-20T21:19:28.569Z,15.96
2019-04-20T21:21:55.715Z,15.56
2019-04-20T21:24:19.640Z,15.49
2019-04-20T21:26:47.793Z,15.79
2019-04-20T21:29:20.491Z,16.05
2019-04-20T21:31:55.623Z,16.16
2019-04-20T21:34:19.880Z,16.67
2019-04-20T21:36:47.297Z,16.86
2019-04-20T21:39:26.247Z,16.85
2019-04-20T21:41:52.003Z,16.88
2019-04-20T21:44:21.819Z,17.06
2019-04-20T21:46:51.217Z,16.98
2019-04-20T21:49:30.716Z,16.91
2019-04-20T21:51:55.407Z,16.45
2019-04-20T21:54:18.245Z,16.39
2019-04-20T21:56:55.053Z,16.20
2019-04-20T21:59:24.121Z,16.43
2019-04-20T22:01:55.225Z,16.44
2019-04-20T22:04:20.965Z,16.44
2019-04-20T22:06:50.167Z,16.65
2019-04-20T22:09:20.337Z,16.57
2019-04-20T22:11:49.748Z,16.43
2019-04-20T22:14:22.117Z,16.49
2019-04-20T22:16:51.637Z,16.61
2019-04-20T22:19:33.668Z,16.63
2019-04-20T22:22:00.570Z,16.79
2019-04-20T22:24:35.497Z,16.81
2019-04-20T22:40:25.061Z,15.96
2019-04-20T22:42:54.370Z,15.75
2019-04-20T22:45:21.249Z,15.32
2019-04-20T22:47:54.980Z,15.52
2019-04-20T22:50:33.592Z,15.23
2019-04-20T22:52:59.663Z,15.22
2019-04-20T22:55:45.476Z,14.85
2019-04-20T22:58:02.362Z,14.46
2019-04-20T23:00:31.191Z,14.51
2019-04-20T23:02:52.257Z,14.50
2019-04-20T23:05:20.760Z,14.47
2019-04-20T23:07:50.510Z,14.34
2019-04-20T23:10:30.453Z,14.34
2019-04-20T23:12:53.303Z,14.23
2019-04-20T23:15:20.514Z,14.13
2019-04-20T23:17:52.111Z,14.42
2019-04-20T23:20:25.265Z,13.90
2019-04-20T23:22:51.310Z,13.76
2019-04-20T23:25:20.952Z,13.79
2019-04-20T23:27:51.251Z,13.71
2019-04-20T23:30:25.397Z,14.08
2019-04-20T23:32:51.472Z,13.89
2019-04-20T23:35:24.519Z,13.64
2019-04-20T23:37:50.813Z,13.94
2019-04-20T23:40:19.635Z,13.92
2019-04-20T23:43:02.134Z,13.76
2019-04-20T23:45:40.479Z,13.79
2019-04-20T23:55:17.004Z,14.01
2019-04-20T23:57:45.971Z,13.92
